Time;durP1;ratioP1;P1;durP2;ratioP2;P2;SDS_P1;SDS_P2;PMS_P1;PMS_P2;Temp;Humidity;BMP_temperature;BMP_pressure;BME280_temperature;BME280_humidity;BME280_pressure;Samples;Min_cycle;Max_cycle;Signal;HPM_P1;HPM_P2
2021/03/06 00:01:28;;;;;;;24.43;12.93;;;-1.10;99.90;;;;;;5034659;28;20094;-67
2021/03/06 00:03:58;;;;;;;25.40;12.73;;;-1.20;99.90;;;;;;5036838;28;20056;-67
2021/03/06 00:06:26;;;;;;;29.27;13.90;;;-1.20;99.90;;;;;;5036714;28;20083;-67
2021/03/06 00:08:52;;;;;;;29.00;13.17;;;-1.30;99.90;;;;;;5028968;28;20056;-67
2021/03/06 00:11:19;;;;;;;26.97;13.57;;;-1.20;99.90;;;;;;5027726;28;20044;-67
2021/03/06 00:13:45;;;;;;;34.40;14.77;;;-1.20;99.90;;;;;;5044733;28;20044;-67
2021/03/06 00:16:15;;;;;;;28.33;14.33;;;-1.20;99.90;;;;;;5049359;28;20126;-67
2021/03/06 00:18:42;;;;;;;28.10;14.43;;;-1.30;99.90;;;;;;5044509;28;20037;-68
2021/03/06 00:21:12;;;;;;;30.40;15.23;;;-1.30;99.90;;;;;;5047874;28;20044;-68
2021/03/06 00:23:39;;;;;;;29.73;14.90;;;-1.30;99.90;;;;;;5042322;28;20056;-68
2021/03/06 00:26:06;;;;;;;26.90;14.20;;;-1.30;99.90;;;;;;5049699;28;20075;-67
2021/03/06 00:28:32;;;;;;;27.47;14.20;;;-1.30;99.90;;;;;;5050578;28;20388;-68
2021/03/06 00:30:59;;;;;;;26.13;12.57;;;-1.30;99.90;;;;;;5048685;28;20055;-68
2021/03/06 00:33:25;;;;;;;28.50;13.47;;;-1.30;99.90;;;;;;5048386;28;20106;-68
2021/03/06 00:35:52;;;;;;;22.77;12.23;;;-1.30;99.90;;;;;;5047760;28;20189;-68
2021/03/06 00:38:19;;;;;;;26.07;13.53;;;-1.30;99.90;;;;;;5043926;28;20063;-68
2021/03/06 00:40:46;;;;;;;30.53;13.13;;;-1.30;99.90;;;;;;5036530;28;20063;-68
2021/03/06 00:43:13;;;;;;;27.70;13.13;;;-1.30;99.90;;;;;;5034936;28;20045;-68
2021/03/06 00:45:39;;;;;;;27.00;12.60;;;-1.40;99.90;;;;;;5036500;28;20413;-68
2021/03/06 00:48:06;;;;;;;27.63;13.60;;;-1.30;99.90;;;;;;5036629;28;20094;-68
2021/03/06 00:50:35;;;;;;;26.27;13.53;;;-1.40;99.90;;;;;;5047401;28;20044;-68
2021/03/06 00:53:03;;;;;;;30.23;14.63;;;-1.40;99.90;;;;;;5042448;28;20048;-68
2021/03/06 00:55:30;;;;;;;31.07;14.07;;;-1.40;99.90;;;;;;5035873;28;20497;-68
2021/03/06 00:57:57;;;;;;;28.57;14.40;;;-1.40;99.90;;;;;;5035037;28;20048;-68
2021/03/06 01:00:24;;;;;;;30.33;14.10;;;-1.40;99.90;;;;;;5034696;28;20044;-68
2021/03/06 01:02:50;;;;;;;27.17;13.43;;;-1.40;99.90;;;;;;5033804;28;20057;-67
2021/03/06 01:05:17;;;;;;;30.70;14.53;;;-1.50;99.90;;;;;;5036596;28;20417;-68
2021/03/06 01:07:43;;;;;;;25.57;14.03;;;-1.50;99.90;;;;;;5037472;28;20048;-68
2021/03/06 01:10:14;;;;;;;29.60;13.83;;;-1.40;99.90;;;;;;5036067;28;20143;-68
2021/03/06 01:12:41;;;;;;;28.27;12.03;;;-1.50;99.90;;;;;;5034807;28;20389;-68
2021/03/06 01:15:09;;;;;;;24.30;10.70;;;-1.50;99.90;;;;;;5036461;28;20059;-67
2021/03/06 01:17:36;;;;;;;24.87;12.10;;;-1.50;99.90;;;;;;5036843;28;20084;-67
2021/03/06 01:20:04;;;;;;;20.70;10.73;;;-1.60;99.90;;;;;;5033958;28;20178;-68
2021/03/06 01:22:30;;;;;;;20.17;10.60;;;-1.60;99.90;;;;;;5034474;28;20097;-68
2021/03/06 01:24:57;;;;;;;19.17;9.93;;;-1.60;99.90;;;;;;5035342;28;20056;-67
2021/03/06 01:27:24;;;;;;;21.13;9.33;;;-1.60;99.90;;;;;;5035717;28;20447;-68
2021/03/06 01:29:50;;;;;;;21.00;9.50;;;-1.60;99.90;;;;;;5034874;28;20676;-67
2021/03/06 01:32:18;;;;;;;16.30;8.13;;;-1.60;99.90;;;;;;5036095;28;20590;-68
2021/03/06 01:34:44;;;;;;;19.50;9.87;;;-1.70;99.90;;;;;;5038093;28;20053;-67
2021/03/06 01:37:11;;;;;;;19.40;10.47;;;-1.70;99.90;;;;;;5035407;28;20717;-68
2021/03/06 01:39:37;;;;;;;22.73;10.67;;;-1.70;99.90;;;;;;5036979;28;20048;-68
2021/03/06 01:42:05;;;;;;;19.00;9.63;;;-1.70;99.90;;;;;;5036731;28;20040;-68
2021/03/06 01:44:31;;;;;;;23.13;8.90;;;-1.70;99.90;;;;;;5037793;28;20145;-67
2021/03/06 01:46:59;;;;;;;18.63;9.70;;;-1.70;99.90;;;;;;5038465;28;20060;-67
2021/03/06 01:49:27;;;;;;;18.57;9.17;;;-1.70;99.90;;;;;;5039255;28;20135;-68
2021/03/06 01:51:53;;;;;;;17.50;8.97;;;-1.80;99.90;;;;;;5039032;28;20052;-68
2021/03/06 01:54:22;;;;;;;17.10;9.10;;;-1.80;99.90;;;;;;5034610;28;20040;-68
2021/03/06 01:56:49;;;;;;;20.60;8.80;;;-1.90;99.90;;;;;;5034420;28;20421;-67
2021/03/06 01:59:16;;;;;;;19.70;8.23;;;-1.80;99.90;;;;;;5036956;28;20405;-68
2021/03/06 02:01:43;;;;;;;16.77;8.13;;;-1.90;99.90;;;;;;5034413;28;20055;-68
2021/03/06 02:04:09;;;;;;;19.97;9.03;;;-1.80;99.90;;;;;;5034870;28;20052;-68
2021/03/06 02:06:37;;;;;;;15.97;8.30;;;-1.80;99.90;;;;;;5041524;28;20519;-67
2021/03/06 02:09:04;;;;;;;17.03;8.57;;;-1.80;99.90;;;;;;5042137;28;20044;-67
2021/03/06 02:11:38;;;;;;;20.70;8.73;;;-1.80;99.90;;;;;;5037421;28;20052;-68
2021/03/06 02:14:20;;;;;;;19.13;9.20;;;-1.80;99.90;;;;;;5034370;28;20052;-68
2021/03/06 02:16:50;;;;;;;17.20;8.97;;;-1.80;99.90;;;;;;5033254;28;20048;-67
2021/03/06 02:19:38;;;;;;;15.53;8.47;;;-1.90;99.90;;;;;;5033522;28;20572;-67
2021/03/06 02:22:28;;;;;;;18.77;9.30;;;-2.00;99.90;;;;;;5031913;28;20048;-67
2021/03/06 02:25:12;;;;;;;19.83;9.20;;;-2.00;99.90;;;;;;5034989;28;20054;-67
2021/03/06 02:27:54;;;;;;;17.77;8.00;;;-1.90;99.90;;;;;;5035459;28;20087;-67
2021/03/06 02:30:23;;;;;;;22.30;9.47;;;-1.90;99.90;;;;;;5034400;28;20515;-68
2021/03/06 02:32:51;;;;;;;18.77;8.70;;;-2.00;99.90;;;;;;5035436;28;20053;-67
2021/03/06 02:35:23;;;;;;;24.53;9.47;;;-1.90;99.90;;;;;;5035529;28;20050;-67
2021/03/06 02:37:57;;;;;;;17.97;8.43;;;-1.90;99.90;;;;;;5034888;28;20044;-68
2021/03/06 02:40:25;;;;;;;17.73;8.93;;;-1.90;99.90;;;;;;5033255;28;20049;-68
2021/03/06 02:42:52;;;;;;;18.87;8.40;;;-2.00;99.90;;;;;;5038963;28;20048;-68
2021/03/06 02:45:22;;;;;;;18.23;9.47;;;-2.10;99.90;;;;;;5039164;28;20056;-67
2021/03/06 02:47:49;;;;;;;17.10;9.33;;;-2.10;99.90;;;;;;5037492;28;20695;-68
2021/03/06 02:50:15;;;;;;;24.83;9.53;;;-2.10;99.90;;;;;;5038923;28;20067;-67
2021/03/06 02:52:42;;;;;;;21.53;9.40;;;-2.00;99.90;;;;;;5047593;28;20529;-68
2021/03/06 02:55:10;;;;;;;20.70;9.37;;;-2.10;99.90;;;;;;5041098;28;20049;-68
2021/03/06 02:57:50;;;;;;;20.07;9.50;;;-2.10;99.90;;;;;;5040171;28;20591;-68
2021/03/06 03:00:31;;;;;;;19.03;9.13;;;-2.10;99.90;;;;;;5040772;28;20505;-68
2021/03/06 03:03:11;;;;;;;19.67;8.50;;;-2.10;99.90;;;;;;5039781;28;20041;-67
2021/03/06 03:05:46;;;;;;;18.47;7.90;;;-2.20;99.90;;;;;;5042116;28;20099;-68
2021/03/06 03:08:21;;;;;;;19.30;9.30;;;-2.20;99.90;;;;;;5040782;28;20044;-68
2021/03/06 03:10:53;;;;;;;20.27;8.63;;;-2.20;99.90;;;;;;5040178;28;20133;-68
2021/03/06 03:13:24;;;;;;;16.83;8.47;;;-2.30;99.90;;;;;;5038233;28;20056;-68
2021/03/06 03:15:56;;;;;;;17.90;9.43;;;-2.20;99.90;;;;;;5038239;28;20816;-67
2021/03/06 03:18:27;;;;;;;19.97;8.63;;;-2.20;99.90;;;;;;5039048;28;20068;-67
2021/03/06 03:20:55;;;;;;;21.47;9.20;;;-2.20;99.90;;;;;;5037386;28;20401;-68
2021/03/06 03:23:27;;;;;;;19.83;8.47;;;-2.20;99.90;;;;;;5036232;28;20044;-67
2021/03/06 03:25:54;;;;;;;21.77;9.93;;;-2.20;99.90;;;;;;5039428;28;20044;-68
2021/03/06 03:28:22;;;;;;;20.33;8.97;;;-2.20;99.90;;;;;;5040253;28;20521;-68
2021/03/06 03:30:49;;;;;;;18.73;8.40;;;-2.30;99.90;;;;;;5040345;28;20599;-68
2021/03/06 03:33:19;;;;;;;18.50;8.90;;;-2.30;99.90;;;;;;5038902;28;20052;-68
2021/03/06 03:35:46;;;;;;;20.33;8.30;;;-2.30;99.90;;;;;;5040122;28;20045;-68
2021/03/06 03:38:13;;;;;;;20.27;9.33;;;-2.30;99.90;;;;;;5042210;28;20529;-68
2021/03/06 03:40:40;;;;;;;16.97;8.93;;;-2.30;99.90;;;;;;5050864;28;20060;-68
2021/03/06 03:43:08;;;;;;;21.67;8.80;;;-2.30;99.90;;;;;;5040647;28;20056;-68
2021/03/06 03:45:35;;;;;;;17.73;8.27;;;-2.30;99.90;;;;;;5039593;28;20483;-68
2021/03/06 03:48:02;;;;;;;18.57;8.30;;;-2.40;99.90;;;;;;5038965;28;21013;-68
2021/03/06 03:50:29;;;;;;;18.23;7.70;;;-2.40;99.90;;;;;;5039268;28;20051;-69
2021/03/06 03:52:57;;;;;;;18.23;8.10;;;-2.40;99.90;;;;;;5035645;28;20053;-68
2021/03/06 03:55:25;;;;;;;18.90;8.47;;;-2.40;99.90;;;;;;5038633;28;20047;-68
2021/03/06 03:57:51;;;;;;;17.63;9.80;;;-2.40;99.90;;;;;;5039688;28;20074;-68
2021/03/06 04:00:20;;;;;;;18.17;7.97;;;-2.40;99.90;;;;;;5041734;28;20048;-68
2021/03/06 04:02:47;;;;;;;16.37;8.30;;;-2.40;99.90;;;;;;5039687;28;20044;-68
2021/03/06 04:05:14;;;;;;;19.60;8.27;;;-2.40;99.90;;;;;;5039869;28;20420;-67
2021/03/06 04:07:44;;;;;;;20.20;7.93;;;-2.30;99.90;;;;;;5040334;28;20045;-68
2021/03/06 04:10:13;;;;;;;15.97;7.67;;;-2.40;99.90;;;;;;5040633;28;20048;-69
2021/03/06 04:12:40;;;;;;;21.80;8.33;;;-2.40;99.90;;;;;;5039595;28;20593;-68
2021/03/06 04:15:08;;;;;;;14.87;7.73;;;-2.40;99.90;;;;;;5038036;28;20056;-67
2021/03/06 04:17:35;;;;;;;21.33;8.63;;;-2.40;99.90;;;;;;5038397;28;20097;-68
2021/03/06 04:20:02;;;;;;;17.27;7.83;;;-2.40;99.90;;;;;;5038047;28;20483;-68
2021/03/06 04:22:29;;;;;;;21.63;8.53;;;-2.40;99.90;;;;;;5033501;28;20060;-67
2021/03/06 04:24:57;;;;;;;23.23;8.73;;;-2.40;99.90;;;;;;5037632;28;20053;-67
2021/03/06 04:27:23;;;;;;;25.07;9.70;;;-2.50;99.90;;;;;;5038427;28;20970;-68
2021/03/06 04:29:50;;;;;;;28.33;9.47;;;-2.50;99.90;;;;;;5039778;28;20048;-68
2021/03/06 04:32:17;;;;;;;27.23;9.27;;;-2.40;99.90;;;;;;5037776;28;20465;-68
2021/03/06 04:34:44;;;;;;;23.23;8.40;;;-2.40;99.90;;;;;;5037407;28;20084;-68
2021/03/06 04:37:10;;;;;;;21.17;8.03;;;-2.50;99.90;;;;;;5037069;28;20129;-68
2021/03/06 04:39:37;;;;;;;16.70;7.67;;;-2.40;99.90;;;;;;5039629;28;20059;-68
2021/03/06 04:42:05;;;;;;;17.40;7.03;;;-2.50;99.90;;;;;;5037870;28;20052;-67
2021/03/06 04:44:32;;;;;;;15.93;7.80;;;-2.60;99.90;;;;;;5033234;28;20048;-67
2021/03/06 04:46:58;;;;;;;17.63;7.20;;;-2.60;99.90;;;;;;5035351;28;20056;-67
2021/03/06 04:49:25;;;;;;;15.97;7.27;;;-2.50;99.90;;;;;;5036091;28;20598;-68
2021/03/06 04:51:52;;;;;;;14.13;6.50;;;-2.60;99.90;;;;;;5037390;28;20049;-68
2021/03/06 04:54:19;;;;;;;15.87;6.73;;;-2.60;99.90;;;;;;5036326;28;20052;-67
2021/03/06 04:56:45;;;;;;;16.80;7.43;;;-2.60;99.90;;;;;;5038691;28;20067;-67
2021/03/06 04:59:12;;;;;;;18.57;7.63;;;-2.50;99.90;;;;;;5038125;28;20072;-67
2021/03/06 05:01:39;;;;;;;14.57;7.47;;;-2.50;99.90;;;;;;5038741;28;20134;-67
2021/03/06 05:04:06;;;;;;;14.07;6.50;;;-2.50;99.90;;;;;;5036199;28;20057;-68
2021/03/06 05:06:32;;;;;;;13.83;6.67;;;-2.60;99.90;;;;;;5040342;28;20138;-67
2021/03/06 05:08:59;;;;;;;19.10;7.00;;;-2.60;99.90;;;;;;5049383;28;20056;-67
2021/03/06 05:11:25;;;;;;;18.27;6.97;;;-2.60;99.90;;;;;;5043433;28;20052;-68
2021/03/06 05:13:52;;;;;;;15.90;7.50;;;-2.60;99.90;;;;;;5036878;28;20554;-67
2021/03/06 05:16:19;;;;;;;15.93;6.80;;;-2.70;99.90;;;;;;5038091;28;20255;-68
2021/03/06 05:18:46;;;;;;;14.83;6.63;;;-2.50;99.90;;;;;;5036602;28;20053;-67
2021/03/06 05:21:12;;;;;;;15.77;7.50;;;-2.60;99.90;;;;;;5037954;28;20048;-68
2021/03/06 05:23:39;;;;;;;14.83;6.50;;;-2.60;99.90;;;;;;5032749;28;21174;-70
2021/03/06 05:26:05;;;;;;;13.90;6.73;;;-2.70;99.90;;;;;;5038062;28;20114;-67
2021/03/06 05:28:32;;;;;;;16.43;7.37;;;-2.70;99.90;;;;;;5039232;28;20067;-74
2021/03/06 05:30:58;;;;;;;15.10;7.37;;;-2.70;99.90;;;;;;5037771;28;20063;-71
2021/03/06 05:33:26;;;;;;;16.33;6.90;;;-2.60;99.90;;;;;;5035710;28;20051;-72
2021/03/06 05:35:53;;;;;;;14.90;6.50;;;-2.60;99.90;;;;;;5039447;28;20052;-70
2021/03/06 05:38:20;;;;;;;22.17;8.00;;;-2.70;99.90;;;;;;5042893;28;20079;-69
2021/03/06 05:40:48;;;;;;;12.90;6.33;;;-2.70;99.90;;;;;;5037400;28;20103;-74
2021/03/06 05:43:16;;;;;;;15.73;7.33;;;-2.70;99.90;;;;;;5037138;28;20056;-72
2021/03/06 05:45:45;;;;;;;18.20;7.77;;;-2.70;99.90;;;;;;5038490;28;20064;-71
2021/03/06 05:48:12;;;;;;;20.03;8.53;;;-2.70;99.90;;;;;;5038360;28;20056;-69
2021/03/06 05:50:40;;;;;;;18.43;8.13;;;-2.60;99.90;;;;;;5037701;28;20517;-72
2021/03/06 05:53:11;;;;;;;18.37;8.80;;;-2.50;99.90;;;;;;5040743;28;20048;-74
2021/03/06 05:55:40;;;;;;;16.87;7.50;;;-2.60;99.90;;;;;;5043292;28;20215;-73
2021/03/06 05:58:08;;;;;;;17.50;7.73;;;-2.50;99.90;;;;;;5022101;28;20507;-73
2021/03/06 06:00:38;;;;;;;19.80;8.33;;;-2.60;99.90;;;;;;5023646;28;21017;-74
2021/03/06 06:03:05;;;;;;;16.23;7.80;;;-2.50;99.90;;;;;;5020209;28;20048;-72
2021/03/06 06:05:32;;;;;;;19.13;7.70;;;-2.40;99.90;;;;;;5029120;28;21548;-73
2021/03/06 06:08:03;;;;;;;18.47;8.50;;;-2.60;99.90;;;;;;5028378;28;20054;-71
2021/03/06 06:10:31;;;;;;;15.77;7.30;;;-2.60;99.90;;;;;;5030298;28;20090;-69
2021/03/06 06:12:57;;;;;;;19.50;7.80;;;-2.70;99.90;;;;;;5028461;28;20060;-72
2021/03/06 06:15:24;;;;;;;18.47;8.80;;;-2.60;99.90;;;;;;5027865;28;20132;-69
2021/03/06 06:17:51;;;;;;;20.77;7.93;;;-2.60;99.90;;;;;;5028225;28;20740;-73
2021/03/06 06:20:18;;;;;;;15.57;7.77;;;-2.50;99.90;;;;;;5030537;28;20056;-71
2021/03/06 06:22:45;;;;;;;16.60;8.17;;;-2.40;99.90;;;;;;5029352;28;20056;-70
2021/03/06 06:25:30;;;;;;;15.70;7.27;;;-2.40;99.90;;;;;;5024943;28;20059;-74
2021/03/06 06:28:00;;;;;;;23.30;8.33;;;-2.40;99.90;;;;;;5026753;28;20578;-71
2021/03/06 06:30:27;;;;;;;18.17;7.40;;;-2.40;99.90;;;;;;5032960;28;20460;-73
2021/03/06 06:32:53;;;;;;;20.03;7.93;;;-2.50;99.90;;;;;;5030024;28;20059;-70
2021/03/06 06:35:20;;;;;;;18.47;8.30;;;-2.30;99.90;;;;;;5030249;28;20052;-70
2021/03/06 06:37:57;;;;;;;17.33;7.93;;;-2.20;99.90;;;;;;5032225;28;20048;-73
2021/03/06 06:40:26;;;;;;;22.67;8.50;;;-2.30;99.90;;;;;;5027175;28;20059;-70
2021/03/06 06:42:52;;;;;;;14.70;7.40;;;-2.20;99.90;;;;;;5028587;28;20056;-74
2021/03/06 06:45:19;;;;;;;17.23;8.23;;;-2.20;99.90;;;;;;5029915;28;20098;-71
2021/03/06 06:47:48;;;;;;;15.43;8.00;;;-2.10;99.90;;;;;;5026865;28;20049;-69
2021/03/06 06:50:27;;;;;;;16.37;8.10;;;-2.10;99.90;;;;;;5027975;28;20736;-74
2021/03/06 06:52:54;;;;;;;28.50;8.97;;;-2.10;99.90;;;;;;5027651;28;20113;-73
2021/03/06 06:55:20;;;;;;;17.33;8.93;;;-2.00;99.90;;;;;;5030461;28;20048;-69
2021/03/06 06:57:50;;;;;;;18.30;8.10;;;-2.00;99.90;;;;;;5029910;28;20086;-71
2021/03/06 07:00:17;;;;;;;17.27;8.70;;;-2.00;99.90;;;;;;5029495;28;20515;-70
2021/03/06 07:02:55;;;;;;;18.83;8.57;;;-2.00;99.90;;;;;;5029432;28;20052;-74
2021/03/06 07:05:29;;;;;;;24.93;9.97;;;-1.80;99.90;;;;;;5029691;28;20135;-73
2021/03/06 07:07:57;;;;;;;16.83;8.57;;;-1.60;99.90;;;;;;5029395;28;21271;-73
2021/03/06 07:10:23;;;;;;;17.87;8.10;;;-1.40;99.90;;;;;;5027853;28;20048;-72
2021/03/06 07:12:58;;;;;;;14.03;7.57;;;-1.50;99.90;;;;;;5028190;28;20109;-69
2021/03/06 07:15:26;;;;;;;17.90;7.27;;;-1.30;99.90;;;;;;5027842;28;20060;-70
2021/03/06 07:17:54;;;;;;;16.80;7.93;;;-1.40;99.90;;;;;;5028401;28;20052;-73
2021/03/06 07:20:35;;;;;;;16.07;8.37;;;-1.40;99.90;;;;;;5029366;28;20515;-73
2021/03/06 07:23:17;;;;;;;16.10;7.47;;;-1.40;99.90;;;;;;5027304;28;20424;-72
2021/03/06 07:25:44;;;;;;;20.47;7.87;;;-1.30;99.90;;;;;;5025062;28;20048;-72
2021/03/06 07:28:11;;;;;;;16.73;7.20;;;-1.10;99.90;;;;;;5029596;28;20493;-72
2021/03/06 07:30:38;;;;;;;17.43;7.97;;;-1.10;99.90;;;;;;5032542;28;20056;-69
2021/03/06 07:33:07;;;;;;;16.53;8.37;;;-1.10;99.90;;;;;;5031705;28;20545;-70
2021/03/06 07:35:35;;;;;;;14.83;7.73;;;-1.10;99.90;;;;;;5039482;28;20048;-69
2021/03/06 07:38:08;;;;;;;19.27;8.20;;;-1.00;99.90;;;;;;5034623;28;20044;-72
2021/03/06 07:40:37;;;;;;;16.80;8.10;;;-0.90;99.90;;;;;;5035177;28;20080;-71
2021/03/06 07:43:11;;;;;;;16.57;8.67;;;-0.80;99.90;;;;;;5031768;28;20052;-70
2021/03/06 07:45:42;;;;;;;16.47;7.73;;;-0.80;99.90;;;;;;5036168;28;20063;-69
2021/03/06 07:48:10;;;;;;;16.43;8.20;;;-0.70;99.90;;;;;;5031816;28;20106;-69
2021/03/06 07:50:40;;;;;;;16.70;8.10;;;-0.60;99.90;;;;;;5032641;28;20063;-73
2021/03/06 07:53:10;;;;;;;17.57;7.33;;;-0.60;99.90;;;;;;5031265;28;20558;-69
2021/03/06 07:55:37;;;;;;;16.57;7.83;;;-0.40;99.90;;;;;;5033602;28;20105;-72
2021/03/06 07:58:06;;;;;;;15.93;7.50;;;-0.40;99.90;;;;;;5034730;28;20052;-73
2021/03/06 08:00:45;;;;;;;17.20;6.70;;;-0.20;99.90;;;;;;5034517;28;20044;-69
2021/03/06 08:03:37;;;;;;;14.10;6.77;;;-0.10;99.90;;;;;;5031802;28;20060;-70
2021/03/06 08:06:05;;;;;;;17.67;8.23;;;0.00;99.90;;;;;;5033086;28;20135;-70
2021/03/06 08:08:58;;;;;;;16.60;7.90;;;0.10;99.90;;;;;;5034598;28;20056;-71
2021/03/06 08:11:40;;;;;;;16.37;6.57;;;0.20;99.90;;;;;;5032416;28;20052;-72
2021/03/06 08:14:27;;;;;;;13.67;6.73;;;0.50;99.90;;;;;;5030438;28;20053;-70
2021/03/06 08:16:55;;;;;;;14.45;7.18;;;0.60;99.90;;;;;;5032258;28;20071;-72
2021/03/06 08:19:26;;;;;;;14.87;6.53;;;0.70;99.90;;;;;;5033924;28;20784;-72
2021/03/06 08:21:57;;;;;;;14.77;6.40;;;1.00;99.90;;;;;;5039177;28;20052;-71
2021/03/06 08:24:29;;;;;;;16.30;6.30;;;1.60;99.90;;;;;;5035125;28;20052;-67
2021/03/06 08:27:16;;;;;;;11.73;5.80;;;3.00;99.90;;;;;;5027729;28;20052;-63
2021/03/06 08:29:43;;;;;;;;;;;4.30;99.90;;;;;;5033972;28;20057;-68
2021/03/06 08:32:13;;;;;;;12.32;5.90;;;5.20;99.90;;;;;;5033948;28;19932;-65
2021/03/06 08:34:42;;;;;;;12.93;5.82;;;5.90;99.90;;;;;;5030184;28;20083;-67
2021/03/06 08:37:33;;;;;;;14.10;6.43;;;6.60;99.90;;;;;;5031484;28;20048;-67
2021/03/06 08:40:09;;;;;;;12.20;6.10;;;7.00;99.90;;;;;;5030809;28;20449;-67
2021/03/06 08:42:37;;;;;;;12.63;6.60;;;7.40;99.90;;;;;;5028176;28;20056;-69
2021/03/06 08:45:08;;;;;;;11.95;6.80;;;7.70;99.90;;;;;;5026649;28;20060;-70
2021/03/06 08:47:37;;;;;;;11.50;6.43;;;7.80;99.90;;;;;;5030442;28;20052;-69
2021/03/06 08:50:07;;;;;;;11.52;6.38;;;8.90;99.90;;;;;;5024838;28;20052;-70
2021/03/06 08:52:35;;;;;;;10.43;6.03;;;9.40;99.90;;;;;;5022634;28;20542;-69
2021/03/06 08:55:02;;;;;;;11.25;6.97;;;10.20;99.90;;;;;;5023774;28;20084;-69
2021/03/06 08:57:32;;;;;;;11.20;6.90;;;11.00;98.40;;;;;;5024167;28;20048;-69
2021/03/06 09:00:00;;;;;;;13.05;6.90;;;11.60;94.70;;;;;;5031810;28;20055;-68
2021/03/06 09:02:31;;;;;;;12.40;7.35;;;12.30;92.40;;;;;;5036959;28;20421;-68
2021/03/06 09:05:07;;;;;;;14.40;6.80;;;12.40;89.20;;;;;;5036317;28;20524;-69
2021/03/06 09:07:35;;;;;;;10.85;6.30;;;13.00;87.10;;;;;;5037152;28;20966;-68
2021/03/06 09:10:16;;;;;;;12.32;6.40;;;13.50;79.70;;;;;;5036647;28;20055;-69
2021/03/06 09:12:44;;;;;;;11.70;6.07;;;14.30;77.80;;;;;;5035118;28;20087;-70
2021/03/06 09:15:13;;;;;;;11.95;6.45;;;14.60;73.00;;;;;;5037856;28;20094;-69
2021/03/06 09:17:39;;;;;;;12.82;7.13;;;14.90;71.80;;;;;;5041043;28;20102;-69
2021/03/06 09:20:09;;;;;;;14.40;6.85;;;15.20;66.10;;;;;;5046499;28;20048;-70
2021/03/06 09:22:42;;;;;;;11.88;6.65;;;15.10;65.70;;;;;;5043691;28;20078;-70
2021/03/06 09:25:10;;;;;;;12.45;6.85;;;15.40;63.80;;;;;;5044628;28;20055;-70
2021/03/06 09:27:44;;;;;;;12.48;6.30;;;15.80;63.10;;;;;;5041849;28;20053;-69
2021/03/06 09:30:22;;;;;;;10.98;6.30;;;16.00;60.30;;;;;;5045175;28;20091;-70
2021/03/06 09:32:49;;;;;;;11.55;6.50;;;16.60;59.10;;;;;;5043431;28;20450;-70
2021/03/06 09:35:18;;;;;;;10.70;5.82;;;16.80;59.10;;;;;;5045982;28;20714;-68
2021/03/06 09:37:45;;;;;;;10.52;5.88;;;17.10;56.50;;;;;;5045499;28;20045;-68
2021/03/06 09:40:20;;;;;;;10.10;5.45;;;16.70;56.80;;;;;;5046227;28;20048;-68
2021/03/06 09:42:50;;;;;;;11.00;5.85;;;16.90;56.60;;;;;;5042185;28;20466;-70
2021/03/06 09:45:17;;;;;;;12.18;6.13;;;17.10;53.60;;;;;;5043755;28;20450;-69
2021/03/06 09:47:45;;;;;;;14.52;6.90;;;17.50;53.90;;;;;;5044524;28;21027;-69
2021/03/06 09:50:13;;;;;;;11.85;6.00;;;17.80;54.20;;;;;;5045048;28;20056;-69
2021/03/06 09:52:40;;;;;;;8.35;5.32;;;18.50;52.90;;;;;;5044506;28;20076;-69
2021/03/06 09:55:17;;;;;;;10.43;5.00;;;18.90;50.80;;;;;;5046202;28;20053;-69
2021/03/06 09:57:44;;;;;;;10.63;5.10;;;18.80;50.30;;;;;;5047431;28;20093;-69
2021/03/06 10:00:22;;;;;;;9.95;5.05;;;18.70;51.00;;;;;;5045095;28;21027;-69
2021/03/06 10:02:50;;;;;;;9.45;5.10;;;19.30;49.00;;;;;;5044704;28;20155;-69
2021/03/06 10:05:21;;;;;;;7.43;4.55;;;19.40;50.80;;;;;;5045048;28;20314;-69
2021/03/06 10:07:51;;;;;;;12.30;4.85;;;19.40;48.60;;;;;;5044815;28;20052;-69
2021/03/06 10:10:18;;;;;;;9.05;4.32;;;19.50;48.20;;;;;;5044614;28;20040;-71
2021/03/06 10:12:46;;;;;;;10.30;4.68;;;17.90;46.50;;;;;;5043856;28;20057;-71
2021/03/06 10:15:15;;;;;;;6.82;3.90;;;19.10;48.40;;;;;;5045363;28;20106;-69
2021/03/06 10:17:43;;;;;;;7.68;3.40;;;19.60;48.40;;;;;;5044857;28;20052;-69
2021/03/06 10:20:11;;;;;;;7.80;4.28;;;19.50;45.20;;;;;;5044859;28;20048;-71
2021/03/06 10:22:50;;;;;;;6.93;3.65;;;18.90;43.70;;;;;;5045004;28;20049;-68
2021/03/06 10:25:24;;;;;;;7.85;4.10;;;17.40;43.60;;;;;;5045655;28;20052;-68
2021/03/06 10:27:51;;;;;;;8.90;3.42;;;18.10;46.50;;;;;;5043198;28;20052;-69
2021/03/06 10:30:19;;;;;;;6.35;3.70;;;19.50;44.30;;;;;;5043290;28;20049;-69
2021/03/06 10:32:47;;;;;;;8.95;3.53;;;20.20;41.50;;;;;;5043211;28;20052;-69
2021/03/06 10:35:39;;;;;;;8.15;3.55;;;20.10;41.90;;;;;;5044703;28;20041;-69
2021/03/06 10:38:11;;;;;;;6.18;3.72;;;21.00;43.40;;;;;;5044628;28;20052;-72
2021/03/06 10:40:43;;;;;;;5.85;3.20;;;20.50;41.30;;;;;;5045577;28;20067;-69
2021/03/06 10:43:25;;;;;;;5.05;2.63;;;20.90;42.20;;;;;;5043984;28;20049;-69
2021/03/06 10:45:52;;;;;;;5.82;2.28;;;20.90;37.20;;;;;;5044900;28;20048;-68
2021/03/06 10:48:30;;;;;;;4.85;2.33;;;20.60;36.30;;;;;;5045422;28;20086;-69
2021/03/06 10:50:57;;;;;;;7.90;2.67;;;20.70;34.40;;;;;;5049695;28;20110;-70
2021/03/06 10:53:25;;;;;;;5.82;2.42;;;20.80;37.30;;;;;;5046570;28;20056;-67
2021/03/06 10:55:53;;;;;;;4.88;2.45;;;21.50;36.20;;;;;;5035914;28;20045;-67
2021/03/06 10:58:20;;;;;;;4.88;2.58;;;20.70;37.00;;;;;;5034993;28;20098;-67
2021/03/06 11:00:49;;;;;;;6.38;2.95;;;19.30;35.90;;;;;;5036255;28;20056;-67
2021/03/06 11:03:15;;;;;;;5.18;2.72;;;19.40;38.70;;;;;;5038569;28;20059;-68
2021/03/06 11:05:43;;;;;;;4.10;2.25;;;20.60;37.80;;;;;;5040369;28;20570;-67
2021/03/06 11:08:15;;;;;;;5.72;2.63;;;20.70;36.70;;;;;;5041048;28;20052;-69
2021/03/06 11:10:45;;;;;;;5.93;2.80;;;20.30;34.80;;;;;;5040176;28;20101;-67
2021/03/06 11:13:15;;;;;;;7.05;2.50;;;19.20;34.40;;;;;;5041722;28;20048;-66
2021/03/06 11:15:49;;;;;;;6.10;2.58;;;18.70;33.70;;;;;;5052449;28;20106;-67
2021/03/06 11:18:16;;;;;;;5.25;2.22;;;18.60;35.30;;;;;;5049704;28;20052;-67
2021/03/06 11:20:43;;;;;;;4.18;2.13;;;18.80;34.60;;;;;;5051320;28;20052;-67
2021/03/06 11:23:09;;;;;;;4.97;2.70;;;19.40;36.00;;;;;;5046862;28;20466;-67
2021/03/06 11:25:36;;;;;;;4.80;2.40;;;19.90;35.80;;;;;;5045321;28;20048;-67
2021/03/06 11:28:06;;;;;;;5.70;2.70;;;20.30;38.20;;;;;;5047891;28;20044;-67
2021/03/06 11:30:34;;;;;;;4.97;2.45;;;20.60;37.40;;;;;;5048041;28;20428;-68
2021/03/06 11:33:03;;;;;;;5.78;2.67;;;21.40;38.40;;;;;;5045491;28;20154;-66
2021/03/06 11:35:30;;;;;;;5.20;2.75;;;21.40;36.30;;;;;;5060642;28;20071;-66
2021/03/06 11:37:57;;;;;;;5.50;3.00;;;20.50;36.70;;;;;;5055380;28;20076;-67
2021/03/06 11:40:28;;;;;;;5.10;2.58;;;19.70;37.50;;;;;;5065169;28;20054;-70
2021/03/06 11:42:55;;;;;;;7.60;3.17;;;21.00;37.60;;;;;;5052689;28;20075;-68
2021/03/06 11:45:24;;;;;;;6.35;2.88;;;21.70;37.70;;;;;;5049690;28;20477;-68
2021/03/06 11:47:51;;;;;;;7.97;2.90;;;21.40;37.70;;;;;;5049404;28;20052;-68
2021/03/06 11:50:23;;;;;;;6.32;3.47;;;20.70;36.50;;;;;;5033401;28;20129;-70
2021/03/06 11:52:50;;;;;;;7.15;2.92;;;19.60;36.80;;;;;;5036237;28;20131;-70
2021/03/06 11:55:16;;;;;;;6.43;2.80;;;20.60;35.50;;;;;;5042463;28;20048;-69
2021/03/06 11:57:44;;;;;;;5.30;2.78;;;21.00;36.50;;;;;;5040615;28;20652;-69
2021/03/06 12:00:14;;;;;;;5.85;3.17;;;21.60;37.70;;;;;;5044377;28;20165;-69
2021/03/06 12:02:41;;;;;;;8.10;3.47;;;21.40;37.50;;;;;;5045383;28;20049;-69
2021/03/06 12:05:10;;;;;;;6.15;2.78;;;21.50;36.10;;;;;;5047119;28;20045;-69
2021/03/06 12:07:36;;;;;;;7.88;3.42;;;20.40;34.10;;;;;;5048442;28;20053;-70
2021/03/06 12:10:07;;;;;;;6.82;2.75;;;19.30;34.40;;;;;;5048598;28;20044;-69
2021/03/06 12:12:35;;;;;;;4.65;2.70;;;18.10;34.90;;;;;;5051258;28;21163;-69
2021/03/06 12:15:38;;;;;;;7.75;2.83;;;18.70;38.20;;;;;;5074900;28;20118;-69
2021/03/06 12:18:06;;;;;;;5.65;2.70;;;18.90;34.80;;;;;;5082417;28;20102;-69
2021/03/06 12:20:33;;;;;;;5.10;2.83;;;17.70;34.60;;;;;;5066263;28;20056;-69
2021/03/06 12:22:59;;;;;;;6.35;2.75;;;17.10;35.30;;;;;;5067222;28;20036;-68
2021/03/06 12:25:26;;;;;;;5.85;3.00;;;17.80;36.60;;;;;;5067980;28;20497;-69
2021/03/06 12:27:53;;;;;;;3.90;2.35;;;19.00;38.60;;;;;;5054777;28;20644;-69
2021/03/06 12:30:20;;;;;;;6.10;3.17;;;19.00;35.50;;;;;;5061851;28;20079;-69
2021/03/06 12:32:48;;;;;;;6.35;2.92;;;18.00;34.90;;;;;;5048571;28;20074;-69
2021/03/06 12:35:17;;;;;;;5.75;2.70;;;18.20;36.50;;;;;;5049170;28;20570;-69
2021/03/06 12:37:43;;;;;;;7.07;2.80;;;18.00;35.50;;;;;;5048295;28;20102;-69
2021/03/06 12:40:11;;;;;;;6.40;3.08;;;17.80;35.60;;;;;;5042447;28;20051;-69
2021/03/06 12:42:38;;;;;;;5.07;2.92;;;18.30;38.20;;;;;;5047909;28;20070;-69
2021/03/06 12:45:07;;;;;;;7.05;3.22;;;18.20;37.50;;;;;;5047719;28;20048;-69
2021/03/06 12:47:34;;;;;;;6.55;3.00;;;18.90;38.30;;;;;;5047595;28;20416;-69
2021/03/06 12:50:00;;;;;;;7.30;3.35;;;19.20;37.80;;;;;;5047366;28;20048;-69